To NAV CANADA Home Page Login to a new session Search on AWWS site Feedback and Comments Disclaimer Vers la page française équivalente Tips FAQ What's new on the site To the Forecasts and Observations / NOTAM section To "File a Flight Plan" website Publications and other links Update of the User's profile FIC Telephone Numbers My Weather Data Folder Route Weather Data Regional Weather Data Local Weather Data To the Forecasts and Observations / NOTAM section
Request Generated 02/23/2017 at 20:45:02 UTC . Weather information available at that time is displayed.

METAR/TAF

NORTH BATTLEFORD/SK    (show WxCam)

METAR CYQW 232000Z AUTO 28003KT 210V330 9SM OVC048 M06/M11 A3011 RMK
SLP233=
SPECI CYQW 231936Z AUTO 27005KT 230V290 9SM OVC046 M06/M11 A3011 RMK
SLP234=
SPECI CYQW 231905Z AUTO 28005KT 240V310 9SM -SN OVC046 M07/M11 A3013
RMK SLP239=
METAR CYQW 231900Z AUTO 25005KT 240V350 9SM OVC048 M07/M11 A3013 RMK
SLP240=
METAR CYQW 231800Z AUTO 30004KT 280V340 9SM FEW040 OVC050 M07/M11
A3013 RMK SLP242=

TAF CYQW 231746Z 2318/2406 33005KT P6SM BKN040
FM232200 35005KT P6SM BKN030 BKN080 TEMPO 2322/2406 4SM -SN
OVC020
RMK FCST BASED ON AUTO OBS. NXT FCST BY 240000Z=
Your time UTC time
Weather data provided by Environment Canada and NAV CANADA